Time;durP1;ratioP1;P1;durP2;ratioP2;P2;SDS_P1;SDS_P2;PMS_P1;PMS_P2;Temp;Humidity;BMP_temperature;BMP_pressure;BME280_temperature;BME280_humidity;BME280_pressure;Samples;Min_cycle;Max_cycle;Signal;HPM_P1;HPM_P2
2021/05/21 00:00:30;;;;;;;;;;;;;;;22.39;47.62;100329.94;5076102;28;763;-59
2021/05/21 00:02:57;;;;;;;;;;;;;;;22.24;48.00;100328.41;5076038;28;818;-59
2021/05/21 00:05:22;;;;;;;;;;;;;;;22.21;48.06;100324.34;5075913;28;798;-60
2021/05/21 00:07:48;;;;;;;;;;;;;;;22.41;47.72;100315.75;5076318;28;763;-59
2021/05/21 00:10:14;;;;;;;;;;;;;;;22.31;47.97;100314.09;5075873;28;763;-59
2021/05/21 00:12:39;;;;;;;;;;;;;;;22.26;48.08;100311.47;5088320;28;958;-59
2021/05/21 00:15:05;;;;;;;;;;;;;;;22.32;47.84;100312.97;5096139;28;822;-59
2021/05/21 00:17:31;;;;;;;;;;;;;;;22.36;47.67;100319.53;5095906;28;1989;-59
2021/05/21 00:19:56;;;;;;;;;;;;;;;21.83;49.07;100308.28;5095941;28;830;-59
2021/05/21 00:22:22;;;;;;;;;;;;;;;21.59;49.99;100297.63;5096021;28;819;-59
2021/05/21 00:24:47;;;;;;;;;;;;;;;21.19;50.38;100308.63;5094683;28;1140;-59
2021/05/21 00:27:13;;;;;;;;;;;;;;;21.56;50.08;100305.72;5086032;28;984;-59
2021/05/21 00:29:38;;;;;;;;;;;;;;;21.87;48.96;100306.50;5075749;28;750;-59
2021/05/21 00:32:04;;;;;;;;;;;;;;;22.13;48.53;100310.47;5076093;28;739;-59
2021/05/21 00:34:29;;;;;;;;;;;;;;;22.39;47.68;100313.31;5075646;28;1046;-59
2021/05/21 00:36:54;;;;;;;;;;;;;;;22.15;48.16;100317.34;5075482;28;1975;-59
2021/05/21 00:39:21;;;;;;;;;;;;;;;22.07;48.18;100312.59;5075779;28;898;-59
2021/05/21 00:41:47;;;;;;;;;;;;;;;21.91;48.41;100311.41;5077029;28;1013;-59
2021/05/21 00:44:12;;;;;;;;;;;;;;;21.77;48.51;100308.75;5077785;28;1066;-59
2021/05/21 00:46:38;;;;;;;;;;;;;;;21.78;48.07;100322.25;5079331;28;838;-59
2021/05/21 00:49:03;;;;;;;;;;;;;;;21.69;47.77;100326.97;5078900;28;831;-59
2021/05/21 00:51:28;;;;;;;;;;;;;;;21.75;48.08;100322.91;5078990;28;842;-59
2021/05/21 00:53:54;;;;;;;;;;;;;;;21.79;49.17;100312.03;5079350;28;822;-59
2021/05/21 00:56:19;;;;;;;;;;;;;;;21.99;49.02;100316.16;5080129;28;1005;-59
2021/05/21 00:58:46;;;;;;;;;;;;;;;22.21;48.24;100306.91;5078708;28;1980;-59
2021/05/21 01:01:11;;;;;;;;;;;;;;;22.33;48.04;100303.50;5079342;28;823;-59
2021/05/21 01:03:40;;;;;;;;;;;;;;;22.46;47.45;100297.03;5078603;28;782;-59
2021/05/21 01:06:06;;;;;;;;;;;;;;;22.02;48.57;100301.66;5078717;28;767;-59
2021/05/21 01:08:32;;;;;;;;;;;;;;;21.59;49.61;100302.31;5078861;28;831;-59
2021/05/21 01:10:57;;;;;;;;;;;;;;;21.15;50.58;100305.69;5078457;28;767;-59
2021/05/21 01:13:22;;;;;;;;;;;;;;;21.52;50.06;100305.56;5079880;28;1006;-59
2021/05/21 01:15:48;;;;;;;;;;;;;;;21.95;48.85;100304.09;5078674;28;744;-59
2021/05/21 01:18:13;;;;;;;;;;;;;;;22.13;48.11;100308.53;5078007;28;1982;-59
2021/05/21 01:20:39;;;;;;;;;;;;;;;22.29;47.79;100319.16;5078533;28;799;-59
2021/05/21 01:23:06;;;;;;;;;;;;;;;22.39;47.71;100324.41;5078583;28;838;-59
2021/05/21 01:25:32;;;;;;;;;;;;;;;22.45;47.40;100325.88;5078234;28;743;-59
2021/05/21 01:27:58;;;;;;;;;;;;;;;22.45;47.37;100325.88;5079887;28;966;-59
2021/05/21 01:30:24;;;;;;;;;;;;;;;22.21;48.27;100327.09;5078498;28;771;-58
2021/05/21 01:32:50;;;;;;;;;;;;;;;22.12;47.97;100331.81;5077912;28;826;-60
2021/05/21 01:35:16;;;;;;;;;;;;;;;22.04;48.01;100340.91;5078377;28;506;-60
2021/05/21 01:37:43;;;;;;;;;;;;;;;21.93;47.95;100340.38;5078526;28;2368;-59
2021/05/21 01:40:11;;;;;;;;;;;;;;;21.79;47.63;100340.50;5078051;28;876;-58
2021/05/21 01:42:36;;;;;;;;;;;;;;;21.52;48.21;100328.50;5079571;28;962;-59
2021/05/21 01:45:05;;;;;;;;;;;;;;;21.47;47.94;100327.81;5076430;28;813;-60
2021/05/21 01:47:30;;;;;;;;;;;;;;;21.57;48.35;100332.28;5078014;28;843;-59
2021/05/21 01:49:57;;;;;;;;;;;;;;;21.70;48.54;100328.59;5078699;28;895;-59
2021/05/21 01:52:22;;;;;;;;;;;;;;;21.78;49.10;100338.06;5078175;28;837;-59
2021/05/21 01:54:48;;;;;;;;;;;;;;;21.82;49.06;100339.84;5077410;28;775;-59
2021/05/21 01:57:13;;;;;;;;;;;;;;;21.90;48.83;100334.69;5079070;28;1977;-59
2021/05/21 01:59:39;;;;;;;;;;;;;;;22.00;48.54;100345.47;5077783;28;823;-59
2021/05/21 02:02:09;;;;;;;;;;;;;;;21.93;48.60;100339.59;5077685;28;961;-59
2021/05/21 02:04:36;;;;;;;;;;;;;;;21.97;48.73;100335.03;5077745;28;732;-58
2021/05/21 02:07:03;;;;;;;;;;;;;;;22.13;48.08;100336.22;5076373;28;813;-59
2021/05/21 02:09:28;;;;;;;;;;;;;;;21.99;48.48;100339.13;5077655;28;751;-61
2021/05/21 02:11:55;;;;;;;;;;;;;;;22.07;48.16;100337.50;5078791;28;947;-59
2021/05/21 02:14:20;;;;;;;;;;;;;;;22.12;48.20;100336.53;5077530;28;502;-59
2021/05/21 02:16:46;;;;;;;;;;;;;;;22.13;48.20;100333.47;5075690;28;1020;-59
2021/05/21 02:19:12;;;;;;;;;;;;;;;22.09;48.20;100337.19;5077538;28;859;-59
2021/05/21 02:21:40;;;;;;;;;;;;;;;22.18;48.00;100330.53;5077527;28;731;-59
2021/05/21 02:24:05;;;;;;;;;;;;;;;22.15;48.04;100333.94;5077105;28;831;-59
2021/05/21 02:26:31;;;;;;;;;;;;;;;22.14;48.13;100340.63;5078704;28;946;-59
2021/05/21 02:28:57;;;;;;;;;;;;;;;22.17;48.17;100341.94;5077381;28;779;-58
2021/05/21 02:31:22;;;;;;;;;;;;;;;22.25;47.84;100340.34;5077249;28;787;-60
2021/05/21 02:33:47;;;;;;;;;;;;;;;22.19;47.83;100342.44;5077214;28;858;-59
2021/05/21 02:36:13;;;;;;;;;;;;;;;22.28;47.60;100346.03;5077080;28;771;-60
2021/05/21 02:38:38;;;;;;;;;;;;;;;22.27;47.76;100349.91;5077347;28;1969;-59
2021/05/21 02:41:04;;;;;;;;;;;;;;;22.34;47.36;100355.03;5076994;28;902;-59
2021/05/21 02:43:29;;;;;;;;;;;;;;;22.15;47.90;100361.63;5096891;28;997;-59
2021/05/21 02:45:55;;;;;;;;;;;;;;;22.34;47.63;100349.47;5096943;28;803;-59
2021/05/21 02:48:20;;;;;;;;;;;;;;;22.17;47.93;100358.53;5097305;28;851;-59
2021/05/21 02:50:45;;;;;;;;;;;;;;;22.28;47.58;100354.31;5097185;28;726;-59
2021/05/21 02:53:11;;;;;;;;;;;;;;;22.23;47.98;100371.09;5097227;28;771;-59
2021/05/21 02:55:36;;;;;;;;;;;;;;;22.18;47.91;100363.75;5097226;28;760;-59
2021/05/21 02:58:02;;;;;;;;;;;;;;;22.29;47.58;100372.59;5094460;28;1989;-59
2021/05/21 03:00:28;;;;;;;;;;;;;;;22.29;47.62;100372.59;5097383;28;827;-61
2021/05/21 03:02:54;;;;;;;;;;;;;;;22.24;47.74;100371.91;5096951;28;794;-54
2021/05/21 03:05:22;;;;;;;;;;;;;;;22.34;47.47;100363.34;5096489;28;739;-61
2021/05/21 03:07:52;;;;;;;;;;;;;;;22.29;47.74;100358.75;5095355;28;772;-63
2021/05/21 03:10:18;;;;;;;;;;;;;;;21.61;49.24;100352.63;5095706;28;734;-63
2021/05/21 03:12:44;;;;;;;;;;;;;;;21.15;50.61;100346.31;5094780;28;958;-57
2021/05/21 03:15:10;;;;;;;;;;;;;;;21.49;49.78;100345.72;5096912;28;790;-59
2021/05/21 03:17:35;;;;;;;;;;;;;;;21.74;49.11;100357.28;5096340;28;1988;-59
2021/05/21 03:20:01;;;;;;;;;;;;;;;21.96;48.67;100355.56;5097030;28;790;-62
2021/05/21 03:22:26;;;;;;;;;;;;;;;22.05;48.32;100357.22;5096732;28;759;-62
2021/05/21 03:24:52;;;;;;;;;;;;;;;22.03;48.32;100365.03;5096378;28;813;-57
2021/05/21 03:27:17;;;;;;;;;;;;;;;21.97;48.49;100368.25;5094673;28;1035;-59
2021/05/21 03:29:42;;;;;;;;;;;;;;;22.09;48.12;100373.19;5096752;28;846;-59
2021/05/21 03:32:11;;;;;;;;;;;;;;;22.02;48.28;100371.69;5096185;28;822;-61
2021/05/21 03:34:36;;;;;;;;;;;;;;;21.92;48.66;100382.25;5096701;28;801;-58
2021/05/21 03:37:02;;;;;;;;;;;;;;;22.17;47.81;100392.56;5096853;28;1982;-57
2021/05/21 03:39:27;;;;;;;;;;;;;;;22.13;48.09;100399.91;5096491;28;751;-62
2021/05/21 03:41:52;;;;;;;;;;;;;;;22.13;47.95;100405.47;5094554;28;989;-55
2021/05/21 03:44:18;;;;;;;;;;;;;;;22.15;48.08;100413.44;5096851;28;774;-61
2021/05/21 03:46:43;;;;;;;;;;;;;;;22.03;48.20;100414.03;5096425;28;756;-59
2021/05/21 03:49:11;;;;;;;;;;;;;;;22.16;48.00;100420.59;5096383;28;739;-55
2021/05/21 03:51:37;;;;;;;;;;;;;;;22.15;47.93;100416.22;5096179;28;968;-61
2021/05/21 03:54:03;;;;;;;;;;;;;;;22.14;47.93;100415.38;5096005;28;851;-57
2021/05/21 03:56:28;;;;;;;;;;;;;;;22.29;47.47;100413.31;5094231;28;953;-56
2021/05/21 03:58:56;;;;;;;;;;;;;;;22.14;48.01;100407.06;5095456;28;1970;-60
2021/05/21 04:01:22;;;;;;;;;;;;;;;22.26;47.56;100406.47;5096006;28;831;-60
2021/05/21 04:03:47;;;;;;;;;;;;;;;22.21;47.79;100401.88;5078671;28;1248;-60
2021/05/21 04:06:13;;;;;;;;;;;;;;;22.17;47.63;100406.41;5096313;28;767;-61
2021/05/21 04:08:38;;;;;;;;;;;;;;;22.03;48.17;100400.19;5095917;28;823;-52
2021/05/21 04:11:04;;;;;;;;;;;;;;;22.07;48.04;100398.41;5096413;28;767;-55
2021/05/21 04:13:29;;;;;;;;;;;;;;;22.20;47.79;100394.72;5093974;28;937;-52
2021/05/21 04:15:54;;;;;;;;;;;;;;;22.26;47.57;100397.31;5096571;28;727;-60
2021/05/21 04:18:20;;;;;;;;;;;;;;;22.28;47.52;100384.00;5099975;28;1976;-51
2021/05/21 04:20:45;;;;;;;;;;;;;;;22.17;47.78;100384.28;5099837;28;783;-49
2021/05/21 04:23:11;;;;;;;;;;;;;;;22.17;47.73;100378.72;5099795;28;850;-49
2021/05/21 04:25:36;;;;;;;;;;;;;;;22.13;47.72;100383.31;5099982;28;874;-56
2021/05/21 04:28:02;;;;;;;;;;;;;;;22.27;47.61;100387.88;5097781;28;961;-56
2021/05/21 04:30:27;;;;;;;;;;;;;;;22.19;47.79;100384.78;5099670;28;823;-60
2021/05/21 04:32:53;;;;;;;;;;;;;;;22.17;47.59;100391.78;5099846;28;894;-61
2021/05/21 04:35:19;;;;;;;;;;;;;;;22.14;47.67;100407.06;5099572;28;813;-58
2021/05/21 04:37:44;;;;;;;;;;;;;;;22.18;47.80;100412.78;5097907;28;1980;-63
2021/05/21 04:40:10;;;;;;;;;;;;;;;22.24;47.65;100427.31;5100049;28;771;-56
2021/05/21 04:42:35;;;;;;;;;;;;;;;22.34;47.17;100438.13;5097655;28;982;-62
2021/05/21 04:45:01;;;;;;;;;;;;;;;22.45;47.03;100442.22;5099289;28;874;-62
2021/05/21 04:47:26;;;;;;;;;;;;;;;22.35;47.17;100439.75;5099818;28;767;-64
2021/05/21 04:49:51;;;;;;;;;;;;;;;22.31;47.42;100447.84;5099756;28;775;-63
2021/05/21 04:52:17;;;;;;;;;;;;;;;22.42;47.15;100453.16;5099263;28;755;-63
2021/05/21 04:54:42;;;;;;;;;;;;;;;22.33;47.26;100447.53;5097902;28;836;-59
2021/05/21 04:57:08;;;;;;;;;;;;;;;22.31;47.20;100450.63;5097142;28;1914;-63
2021/05/21 04:59:33;;;;;;;;;;;;;;;22.36;47.35;100449.72;5099030;28;783;-62
2021/05/21 05:01:59;;;;;;;;;;;;;;;22.39;47.27;100449.06;5097679;28;819;-62
2021/05/21 05:04:24;;;;;;;;;;;;;;;22.34;47.26;100451.97;5099342;28;812;-61
2021/05/21 05:06:50;;;;;;;;;;;;;;;21.69;48.96;100445.94;5099010;28;799;-62
2021/05/21 05:09:15;;;;;;;;;;;;;;;21.29;49.90;100438.31;5099051;28;811;-63
2021/05/21 05:11:41;;;;;;;;;;;;;;;21.37;49.71;100437.56;5079120;28;877;-59
2021/05/21 05:14:10;;;;;;;;;;;;;;;21.71;48.85;100435.38;5078546;28;782;-59
2021/05/21 05:16:36;;;;;;;;;;;;;;;21.88;48.37;100438.25;5078367;28;1566;-63
2021/05/21 05:19:01;;;;;;;;;;;;;;;22.06;48.00;100449.38;5078860;28;1914;-61
2021/05/21 05:21:27;;;;;;;;;;;;;;;22.09;47.94;100436.84;5078403;28;814;-59
2021/05/21 05:23:52;;;;;;;;;;;;;;;22.11;47.86;100457.56;5078732;28;778;-59
2021/05/21 05:26:18;;;;;;;;;;;;;;;22.13;47.65;100454.47;5079661;28;950;-60
2021/05/21 05:28:43;;;;;;;;;;;;;;;22.25;47.51;100459.41;5077923;28;779;-55
2021/05/21 05:31:09;;;;;;;;;;;;;;;22.18;47.48;100460.69;5078215;28;814;-60
2021/05/21 05:33:35;;;;;;;;;;;;;;;22.21;47.39;100471.13;5078379;28;760;-60
2021/05/21 05:36:02;;;;;;;;;;;;;;;22.18;47.46;100463.44;5078070;28;827;-60
2021/05/21 05:38:28;;;;;;;;;;;;;;;22.28;47.10;100475.38;5086284;28;1918;-60
2021/05/21 05:40:53;;;;;;;;;;;;;;;22.22;47.44;100481.06;5098485;28;767;-56
2021/05/21 05:43:19;;;;;;;;;;;;;;;22.25;47.17;100473.25;5079169;28;989;-60
2021/05/21 05:45:44;;;;;;;;;;;;;;;22.26;47.10;100470.19;5078000;28;862;-62
2021/05/21 05:48:09;;;;;;;;;;;;;;;22.36;47.00;100458.03;5078168;28;831;-48
2021/05/21 05:50:35;;;;;;;;;;;;;;;22.33;47.01;100464.16;5078591;28;727;-51
2021/05/21 05:53:00;;;;;;;;;;;;;;;22.01;47.56;100466.16;5077974;28;764;-67
2021/05/21 05:55:26;;;;;;;;;;;;;;;21.45;48.98;100463.66;5077954;28;775;-50
2021/05/21 05:57:51;;;;;;;;;;;;;;;21.08;49.74;100459.28;5090778;28;1913;-49
2021/05/21 06:00:17;;;;;;;;;;;;;;;21.32;49.37;100457.06;5097804;28;878;-47
2021/05/21 06:02:42;;;;;;;;;;;;;;;21.68;48.51;100464.47;5097796;28;775;-50
2021/05/21 06:05:08;;;;;;;;;;;;;;;21.83;47.95;100465.25;5097533;28;751;-62
2021/05/21 06:07:33;;;;;;;;;;;;;;;21.85;47.79;100457.41;5097741;28;885;-48
2021/05/21 06:09:59;;;;;;;;;;;;;;;22.01;47.37;100455.88;5097982;28;862;-54
2021/05/21 06:12:24;;;;;;;;;;;;;;;22.19;46.99;100464.28;5095498;28;958;-62
2021/05/21 06:14:50;;;;;;;;;;;;;;;22.28;46.70;100461.53;5097536;28;768;-63
2021/05/21 06:17:17;;;;;;;;;;;;;;;22.03;47.34;100473.00;5097808;28;1917;-53
2021/05/21 06:19:43;;;;;;;;;;;;;;;22.01;47.38;100474.47;5097759;28;822;-47
2021/05/21 06:22:08;;;;;;;;;;;;;;;22.18;46.65;100476.50;5097334;28;755;-61
2021/05/21 06:24:34;;;;;;;;;;;;;;;22.29;46.56;100477.03;5097638;28;751;-48
2021/05/21 06:29:34;;;;;;;;;;;;;;;22.24;46.69;100472.44;5097573;28;751;-57
2021/05/21 06:31:59;;;;;;;;;;;;;;;22.28;46.61;100462.34;5096912;28;819;-62
2021/05/21 06:34:25;;;;;;;;;;;;;;;22.25;46.60;100473.25;5097901;28;801;-61
2021/05/21 06:36:50;;;;;;;;;;;;;;;22.16;46.78;100459.38;5095832;28;1263;-61
2021/05/21 06:39:16;;;;;;;;;;;;;;;22.27;46.44;100459.91;5096767;28;1975;-62
2021/05/21 06:41:41;;;;;;;;;;;;;;;22.30;46.44;100459.25;5095154;28;997;-63
2021/05/21 06:44:07;;;;;;;;;;;;;;;22.37;46.31;100465.16;5097028;28;771;-62
2021/05/21 06:46:33;;;;;;;;;;;;;;;22.45;46.08;100458.84;5085722;28;1132;-61
2021/05/21 06:48:58;;;;;;;;;;;;;;;22.49;45.92;100454.28;5076967;28;760;-61
2021/05/21 06:51:24;;;;;;;;;;;;;;;22.46;45.82;100460.50;5077428;28;1115;-62
2021/05/21 06:53:49;;;;;;;;;;;;;;;21.62;47.68;100462.19;5096800;28;886;-63
2021/05/21 06:56:15;;;;;;;;;;;;;;;;;;5095468;28;993;-60
2021/05/21 06:58:41;;;;;;;;;;;;;;;21.10;49.28;100471.69;5096089;28;1905;-63
2021/05/21 07:01:06;;;;;;;;;;;;;;;21.71;47.64;100463.03;5097085;28;751;-61
2021/05/21 07:03:32;;;;;;;;;;;;;;;22.03;46.91;100472.19;5097042;28;842;-62
2021/05/21 07:05:57;;;;;;;;;;;;;;;22.37;46.01;100482.63;5096277;28;823;-62
2021/05/21 07:08:23;;;;;;;;;;;;;;;22.42;45.93;100483.63;5096942;28;793;-62
2021/05/21 07:10:48;;;;;;;;;;;;;;;22.48;45.59;100468.47;5096698;28;833;-62
2021/05/21 07:13:15;;;;;;;;;;;;;;;22.23;46.21;100470.78;5094698;28;961;-59
2021/05/21 07:15:40;;;;;;;;;;;;;;;21.69;47.68;100468.09;5096763;28;759;-61
2021/05/21 07:18:06;;;;;;;;;;;;;;;21.34;48.21;100456.75;5095216;28;1974;-58
2021/05/21 07:20:31;;;;;;;;;;;;;;;21.58;48.02;100469.47;5096464;28;759;-52
2021/05/21 07:22:57;;;;;;;;;;;;;;;22.10;46.92;100467.00;5096631;28;922;-52
2021/05/21 07:25:23;;;;;;;;;;;;;;;22.35;46.13;100459.94;5096674;28;834;-61
2021/05/21 07:27:48;;;;;;;;;;;;;;;22.30;46.33;100462.84;5094201;28;965;-59
2021/05/21 07:30:14;;;;;;;;;;;;;;;22.58;45.64;100461.81;5096571;28;791;-62
2021/05/21 07:32:40;;;;;;;;;;;;;;;21.94;47.26;100469.38;5096605;28;735;-62
2021/05/21 07:35:06;;;;;;;;;;;;;;;21.50;48.46;100469.06;5096054;28;731;-60
2021/05/21 07:37:31;;;;;;;;;;;;;;;21.40;48.79;100480.38;5096261;28;1986;-62
2021/05/21 07:39:56;;;;;;;;;;;;;;;21.97;47.09;100485.34;5096579;28;755;-62
2021/05/21 07:42:22;;;;;;;;;;;;;;;22.14;46.93;100479.06;5094240;28;997;-61
2021/05/21 07:44:47;;;;;;;;;;;;;;;22.37;46.19;100476.25;5096273;28;755;-60
2021/05/21 07:47:13;;;;;;;;;;;;;;;22.26;46.59;100485.97;5096765;28;768;-61
2021/05/21 07:49:38;;;;;;;;;;;;;;;22.15;46.46;100479.91;5096788;28;818;-61
2021/05/21 07:52:04;;;;;;;;;;;;;;;21.88;47.21;100482.53;5100403;28;740;-61
2021/05/21 07:54:29;;;;;;;;;;;;;;;21.85;46.99;100482.34;5100532;28;849;-62
2021/05/21 07:56:55;;;;;;;;;;;;;;;21.59;47.30;100487.69;5098349;28;937;-60
2021/05/21 07:59:20;;;;;;;;;;;;;;;21.76;47.17;100487.81;5100143;28;1983;-57
2021/05/21 08:01:45;;;;;;;;;;;;;;;21.74;47.75;100483.72;5100399;28;779;-61
2021/05/21 08:04:11;;;;;;;;;;;;;;;21.86;47.48;100479.25;5100091;28;862;-60
2021/05/21 08:06:40;;;;;;;;;;;;;;;22.01;46.90;100489.09;5100155;28;901;-63
2021/05/21 08:09:06;;;;;;;;;;;;;;;22.09;46.98;100493.06;5100318;28;866;-49
2021/05/21 08:11:31;;;;;;;;;;;;;;;22.06;46.91;100482.59;5096080;28;990;-62
2021/05/21 08:13:57;;;;;;;;;;;;;;;22.25;46.44;100487.13;5099888;28;759;-63
2021/05/21 08:16:22;;;;;;;;;;;;;;;22.37;46.25;100492.88;5100324;28;1019;-63
2021/05/21 08:18:48;;;;;;;;;;;;;;;22.28;46.56;100494.78;5098429;28;1972;-63
2021/05/21 08:21:13;;;;;;;;;;;;;;;22.16;46.77;100498.13;5099812;28;743;-63
2021/05/21 08:23:38;;;;;;;;;;;;;;;22.31;46.49;100500.47;5100054;28;807;-61
2021/05/21 08:26:06;;;;;;;;;;;;;;;22.22;46.58;100503.22;5099741;28;735;-62
2021/05/21 08:28:32;;;;;;;;;;;;;;;22.30;46.53;100506.34;5080841;28;871;-63
2021/05/21 08:30:58;;;;;;;;;;;;;;;22.38;46.38;100520.28;5079642;28;735;-61
2021/05/21 08:33:23;;;;;;;;;;;;;;;22.46;46.09;100513.13;5079485;28;768;-62
2021/05/21 08:35:49;;;;;;;;;;;;;;;22.47;45.94;100516.69;5078861;28;827;-62
2021/05/21 08:38:16;;;;;;;;;;;;;;;22.45;46.09;100514.25;5079380;28;1910;-52
2021/05/21 08:40:41;;;;;;;;;;;;;;;22.38;46.18;100517.50;5079449;28;826;-62
2021/05/21 08:43:10;;;;;;;;;;;;;;;22.47;46.26;100514.78;5080483;28;930;-57
2021/05/21 08:45:35;;;;;;;;;;;;;;;22.40;46.18;100525.50;5077790;28;1097;-54
2021/05/21 08:48:02;;;;;;;;;;;;;;;21.97;47.22;100523.28;5079190;28;786;-58
2021/05/21 08:50:27;;;;;;;;;;;;;;;21.40;49.08;100523.81;5079008;28;782;-61
2021/05/21 08:52:53;;;;;;;;;;;;;;;21.07;49.11;100524.84;5078879;28;751;-62
2021/05/21 08:55:18;;;;;;;;;;;;;;;21.49;48.74;100525.53;5078729;28;779;-63
2021/05/21 08:57:44;;;;;;;;;;;;;;;21.96;47.41;100527.19;5079853;28;1909;-61
2021/05/21 09:00:10;;;;;;;;;;;;;;;22.19;46.74;100534.31;5077878;28;930;-61
2021/05/21 09:02:35;;;;;;;;;;;;;;;22.10;46.61;100522.38;5078069;28;802;-57
2021/05/21 09:05:01;;;;;;;;;;;;;;;22.04;47.19;100534.72;5078639;28;787;-61
2021/05/21 09:07:28;;;;;;;;;;;;;;;22.29;46.55;100535.19;5078832;28;851;-60
2021/05/21 09:09:53;;;;;;;;;;;;;;;22.20;46.80;100537.91;5078790;28;802;-60
2021/05/21 09:12:20;;;;;;;;;;;;;;;22.07;46.94;100533.28;5080000;28;1033;-60
2021/05/21 09:15:04;;;;;;;;;;;;;;;21.86;47.27;100537.38;5078875;28;803;-57
2021/05/21 09:17:30;;;;;;;;;;;;;;;21.80;47.32;100543.38;5078399;28;1988;-60
2021/05/21 09:19:55;;;;;;;;;;;;;;;21.69;47.32;100546.38;5078715;28;728;-53
2021/05/21 09:22:21;;;;;;;;;;;;;;;21.63;47.61;100542.09;5078743;28;739;-59
2021/05/21 09:24:48;;;;;;;;;;;;;;;21.73;47.79;100538.28;5078577;28;755;-49
2021/05/21 09:27:15;;;;;;;;;;;;;;;21.84;47.71;100542.41;5079530;28;946;-63
2021/05/21 09:29:44;;;;;;;;;;;;;;;21.91;47.49;100527.31;5078598;28;827;-62
2021/05/21 09:32:21;;;;;;;;;;;;;;;21.85;47.75;100538.53;5078553;28;779;-59
2021/05/21 09:34:59;;;;;;;;;;;;;;;21.96;47.45;100544.59;5078422;28;779;-47
2021/05/21 09:37:25;;;;;;;;;;;;;;;21.90;47.62;100545.88;5077971;28;1909;-63
2021/05/21 09:40:07;;;;;;;;;;;;;;;21.85;47.57;100552.38;5078658;28;750;-60
2021/05/21 09:42:45;;;;;;;;;;;;;;;21.89;47.58;100549.78;5079132;28;935;-61
2021/05/21 09:45:24;;;;;;;;;;;;;;;22.04;47.10;100551.34;5078083;28;799;-61
2021/05/21 09:47:50;;;;;;;;;;;;;;;22.02;47.12;100546.13;5078135;28;728;-61
2021/05/21 09:50:16;;;;;;;;;;;;;;;22.07;47.00;100549.91;5078088;28;818;-54
2021/05/21 09:52:45;;;;;;;;;;;;;;;22.15;46.84;100547.16;5077953;28;823;-62
2021/05/21 09:55:10;;;;;;;;;;;;;;;22.09;47.02;100553.16;5077676;28;855;-64
2021/05/21 09:57:36;;;;;;;;;;;;;;;22.15;46.81;100544.41;5077506;28;1914;-52
2021/05/21 10:00:05;;;;;;;;;;;;;;;22.13;46.86;100538.38;5077836;28;536;-57
2021/05/21 10:02:31;;;;;;;;;;;;;;;22.12;47.16;100541.44;5077944;28;636;-55
2021/05/21 10:04:57;;;;;;;;;;;;;;;22.15;46.77;100541.63;5078167;28;838;-54
2021/05/21 10:07:22;;;;;;;;;;;;;;;22.33;46.51;100542.56;5077653;28;609;-52
2021/05/21 10:09:48;;;;;;;;;;;;;;;22.25;46.75;100539.75;5077853;28;840;-63
2021/05/21 10:12:13;;;;;;;;;;;;;;;22.29;46.64;100540.75;5079089;28;927;-52
2021/05/21 10:14:39;;;;;;;;;;;;;;;22.36;46.27;100541.94;5077503;28;636;-60
2021/05/21 10:17:04;;;;;;;;;;;;;;;22.30;46.63;100550.66;5077547;28;1141;-58
2021/05/21 10:19:30;;;;;;;;;;;;;;;22.45;46.19;100550.28;5077139;28;657;-66
2021/05/21 10:21:56;;;;;;;;;;;;;;;22.31;46.61;100544.78;5077999;28;842;-59
2021/05/21 10:24:22;;;;;;;;;;;;;;;22.20;46.81;100541.50;5076359;28;853;-56
2021/05/21 10:26:51;;;;;;;;;;;;;;;22.33;46.67;100538.94;5078573;28;942;-63
2021/05/21 10:29:23;;;;;;;;;;;;;;;22.19;47.01;100539.88;5077136;28;632;-64
2021/05/21 10:31:50;;;;;;;;;;;;;;;22.38;46.43;100538.84;5076437;28;713;-63
2021/05/21 10:34:19;;;;;;;;;;;;;;;22.34;46.51;100538.69;5077120;28;823;-53
2021/05/21 10:37:18;;;;;;;;;;;;;;;22.29;46.57;100543.50;5077211;28;665;-61
2021/05/21 10:40:07;;;;;;;;;;;;;;;22.34;46.70;100546.16;5076836;28;649;-62
2021/05/21 10:42:51;;;;;;;;;;;;;;;22.32;46.46;100545.63;5078221;28;915;-57
2021/05/21 10:45:53;;;;;;;;;;;;;;;21.50;48.59;100560.38;5068647;28;1380;-62
2021/05/21 10:48:24;;;;;;;;;;;;;;;21.40;48.74;100552.28;5076649;28;810;-55
2021/05/21 10:50:50;;;;;;;;;;;;;;;21.37;49.17;100556.50;5076952;28;760;-63
2021/05/21 10:53:15;;;;;;;;;;;;;;;21.80;47.74;100563.56;5075636;28;1326;-56
2021/05/21 10:55:44;;;;;;;;;;;;;;;22.17;47.03;100561.50;5076859;28;799;-55
2021/05/21 10:58:33;;;;;;;;;;;;;;;22.25;46.71;100562.69;5077957;28;1974;-63
2021/05/21 11:01:17;;;;;;;;;;;;;;;22.33;46.42;100569.41;5076829;28;497;-62
2021/05/21 11:03:58;;;;;;;;;;;;;;;22.49;46.00;100572.63;5076220;28;779;-48
2021/05/21 11:06:23;;;;;;;;;;;;;;;21.93;47.31;100583.19;5076809;28;811;-50
2021/05/21 11:08:49;;;;;;;;;;;;;;;21.61;48.14;100582.28;5076741;28;807;-62
2021/05/21 11:11:14;;;;;;;;;;;;;;;21.46;47.98;100575.94;5077311;28;962;-61
2021/05/21 11:13:40;;;;;;;;;;;;;;;21.44;48.90;100580.16;5076990;28;996;-62
2021/05/21 11:16:08;;;;;;;;;;;;;;;21.91;47.39;100579.91;5076455;28;1017;-61
2021/05/21 11:18:34;;;;;;;;;;;;;;;22.16;46.75;100576.50;5076653;28;1910;-52
2021/05/21 11:21:10;;;;;;;;;;;;;;;22.26;46.47;100571.81;5076888;28;799;-55
2021/05/21 11:23:41;;;;;;;;;;;;;;;22.41;46.22;100579.75;5076810;28;735;-59
2021/05/21 11:26:08;;;;;;;;;;;;;;;22.37;46.29;100571.28;5075582;28;930;-62
2021/05/21 11:28:37;;;;;;;;;;;;;;;22.58;45.80;100587.34;5077822;28;985;-49
2021/05/21 11:31:06;;;;;;;;;;;;;;;22.56;45.80;100587.66;5075597;28;778;-49
2021/05/21 11:33:31;;;;;;;;;;;;;;;22.55;45.76;100588.81;5074302;28;1000;-52
2021/05/21 11:35:57;;;;;;;;;;;;;;;21.72;47.83;100597.50;5076365;28;795;-60
2021/05/21 11:38:23;;;;;;;;;;;;;;;21.58;48.07;100591.22;5076510;28;1906;-50
2021/05/21 11:40:48;;;;;;;;;;;;;;;21.23;49.50;100601.91;5075937;28;743;-64
2021/05/21 11:43:14;;;;;;;;;;;;;;;21.83;47.48;100601.66;5077571;28;931;-62
2021/05/21 11:45:39;;;;;;;;;;;;;;;22.16;46.68;100598.66;5076064;28;799;-57
2021/05/21 11:48:09;;;;;;;;;;;;;;;22.22;46.41;100608.47;5075943;28;748;-64
2021/05/21 11:50:34;;;;;;;;;;;;;;;22.43;46.09;100605.19;5076298;28;898;-56
2021/05/21 11:53:09;;;;;;;;;;;;;;;22.28;46.57;100611.09;5075948;28;752;-66
2021/05/21 11:55:35;;;;;;;;;;;;;;;22.48;45.89;100616.16;5075804;28;839;-61
2021/05/21 11:58:00;;;;;;;;;;;;;;;22.58;45.45;100611.47;5077559;28;1902;-63
2021/05/21 12:00:26;;;;;;;;;;;;;;;22.35;46.05;100604.00;5076008;28;783;-50
2021/05/21 12:02:51;;;;;;;;;;;;;;;21.76;47.80;100604.06;5076198;28;787;-54
2021/05/21 12:05:17;;;;;;;;;;;;;;;21.45;48.29;100607.50;5076004;28;902;-64
2021/05/21 12:07:42;;;;;;;;;;;;;;;21.31;48.89;100606.72;5075882;28;772;-63
2021/05/21 12:10:08;;;;;;;;;;;;;;;21.56;48.09;100599.84;5074558;28;788;-56
2021/05/21 12:12:34;;;;;;;;;;;;;;;21.54;48.20;100602.06;5087837;28;1005;-63
2021/05/21 12:15:08;;;;;;;;;;;;;;;21.63;48.15;100604.91;5096264;28;755;-64
2021/05/21 12:17:34;;;;;;;;;;;;;;;21.50;48.19;100610.16;5095662;28;1905;-64
2021/05/21 12:20:00;;;;;;;;;;;;;;;21.81;47.47;100601.19;5094380;28;827;-66
2021/05/21 12:22:26;;;;;;;;;;;;;;;21.92;47.04;100607.25;5083703;28;812;-59
2021/05/21 12:24:51;;;;;;;;;;;;;;;21.99;46.99;100604.91;5075594;28;748;-54
2021/05/21 12:27:18;;;;;;;;;;;;;;;21.93;47.14;100602.56;5076970;28;989;-64
2021/05/21 12:29:43;;;;;;;;;;;;;;;21.98;47.14;100602.41;5078565;28;1731;-66
2021/05/21 12:32:10;;;;;;;;;;;;;;;21.97;47.12;100612.69;5095827;28;748;-65
2021/05/21 12:34:35;;;;;;;;;;;;;;;21.96;47.12;100601.94;5094427;28;864;-64
2021/05/21 12:37:01;;;;;;;;;;;;;;;22.07;46.96;100600.53;5096796;28;779;-67
2021/05/21 12:39:45;;;;;;;;;;;;;;;22.06;46.76;100604.44;5099405;28;1985;-54
2021/05/21 12:42:14;;;;;;;;;;;;;;;22.03;47.08;100602.31;5097573;28;988;-67
2021/05/21 12:44:44;;;;;;;;;;;;;;;22.09;46.68;100612.13;5099536;28;818;-64
2021/05/21 12:47:09;;;;;;;;;;;;;;;22.22;46.34;100607.66;5097537;28;1161;-63
2021/05/21 12:49:35;;;;;;;;;;;;;;;22.07;46.89;100606.09;5079064;28;783;-57
2021/05/21 12:52:02;;;;;;;;;;;;;;;22.11;46.79;100615.41;5079552;28;792;-51
2021/05/21 12:54:28;;;;;;;;;;;;;;;22.04;46.71;100615.03;5079121;28;846;-48